sensor_id;sensor_type;location;lat;lon;timestamp;P1;durP1;ratioP1;P2;durP2;ratioP2
5345;SDS011;2695;49.444;11.054;2022-10-26T00:01:01;5.63;;;2.80;;
5345;SDS011;2695;49.444;11.054;2022-10-26T00:03:32;7.10;;;3.33;;
5345;SDS011;2695;49.444;11.054;2022-10-26T00:06:02;4.00;;;3.37;;
5345;SDS011;2695;49.444;11.054;2022-10-26T00:08:32;7.43;;;3.53;;
5345;SDS011;2695;49.444;11.054;2022-10-26T00:11:00;12.83;;;4.07;;
5345;SDS011;2695;49.444;11.054;2022-10-26T00:13:28;9.03;;;3.97;;
5345;SDS011;2695;49.444;11.054;2022-10-26T00:15:57;6.57;;;3.23;;
5345;SDS011;2695;49.444;11.054;2022-10-26T00:18:26;7.03;;;3.67;;
5345;SDS011;2695;49.444;11.054;2022-10-26T00:20:54;8.27;;;4.00;;
5345;SDS011;2695;49.444;11.054;2022-10-26T00:23:28;8.17;;;3.60;;
5345;SDS011;2695;49.444;11.054;2022-10-26T00:25:56;8.70;;;3.60;;
5345;SDS011;2695;49.444;11.054;2022-10-26T00:28:25;10.53;;;3.67;;
5345;SDS011;2695;49.444;11.054;2022-10-26T00:30:53;8.80;;;3.90;;
5345;SDS011;2695;49.444;11.054;2022-10-26T00:33:22;8.97;;;3.80;;
5345;SDS011;2695;49.444;11.054;2022-10-26T00:38:19;8.17;;;3.20;;
5345;SDS011;2695;49.444;11.054;2022-10-26T00:40:47;7.90;;;4.30;;
5345;SDS011;2695;49.444;11.054;2022-10-26T00:46:01;5.10;;;3.13;;
5345;SDS011;2695;49.444;11.054;2022-10-26T00:48:34;5.83;;;3.43;;
5345;SDS011;2695;49.444;11.054;2022-10-26T00:51:05;6.20;;;3.50;;
5345;SDS011;2695;49.444;11.054;2022-10-26T00:53:36;10.90;;;3.30;;
5345;SDS011;2695;49.444;11.054;2022-10-26T00:56:05;8.63;;;3.53;;
5345;SDS011;2695;49.444;11.054;2022-10-26T00:58:34;7.67;;;3.60;;
5345;SDS011;2695;49.444;11.054;2022-10-26T01:01:03;7.50;;;4.40;;
5345;SDS011;2695;49.444;11.054;2022-10-26T01:03:31;4.93;;;3.97;;
5345;SDS011;2695;49.444;11.054;2022-10-26T01:06:02;8.00;;;4.30;;
5345;SDS011;2695;49.444;11.054;2022-10-26T01:08:32;7.17;;;3.30;;
5345;SDS011;2695;49.444;11.054;2022-10-26T01:11:01;8.40;;;3.20;;
5345;SDS011;2695;49.444;11.054;2022-10-26T01:13:30;6.60;;;3.50;;
5345;SDS011;2695;49.444;11.054;2022-10-26T01:16:03;9.70;;;3.03;;
5345;SDS011;2695;49.444;11.054;2022-10-26T01:18:53;6.63;;;2.90;;
5345;SDS011;2695;49.444;11.054;2022-10-26T01:24:20;4.50;;;2.20;;
5345;SDS011;2695;49.444;11.054;2022-10-26T01:27:12;7.60;;;3.10;;
5345;SDS011;2695;49.444;11.054;2022-10-26T01:33:04;7.70;;;3.37;;
5345;SDS011;2695;49.444;11.054;2022-10-26T01:36:05;4.87;;;2.90;;
5345;SDS011;2695;49.444;11.054;2022-10-26T01:38:41;7.20;;;2.97;;
5345;SDS011;2695;49.444;11.054;2022-10-26T01:41:16;5.47;;;2.70;;
5345;SDS011;2695;49.444;11.054;2022-10-26T01:43:50;5.40;;;2.90;;
5345;SDS011;2695;49.444;11.054;2022-10-26T01:46:24;4.20;;;3.00;;
5345;SDS011;2695;49.444;11.054;2022-10-26T01:48:56;4.90;;;3.80;;
5345;SDS011;2695;49.444;11.054;2022-10-26T01:51:29;5.27;;;2.33;;
5345;SDS011;2695;49.444;11.054;2022-10-26T01:54:01;6.03;;;3.10;;
5345;SDS011;2695;49.444;11.054;2022-10-26T01:56:37;4.03;;;2.43;;
5345;SDS011;2695;49.444;11.054;2022-10-26T01:59:12;7.57;;;2.83;;
5345;SDS011;2695;49.444;11.054;2022-10-26T02:02:17;7.33;;;3.90;;
5345;SDS011;2695;49.444;11.054;2022-10-26T02:05:18;5.43;;;3.10;;
5345;SDS011;2695;49.444;11.054;2022-10-26T02:08:04;6.53;;;3.27;;
5345;SDS011;2695;49.444;11.054;2022-10-26T02:10:49;3.87;;;2.80;;
5345;SDS011;2695;49.444;11.054;2022-10-26T02:13:28;4.90;;;2.73;;
5345;SDS011;2695;49.444;11.054;2022-10-26T02:16:16;3.77;;;2.80;;
5345;SDS011;2695;49.444;11.054;2022-10-26T02:18:52;8.70;;;3.47;;
5345;SDS011;2695;49.444;11.054;2022-10-26T02:21:34;4.83;;;3.53;;
5345;SDS011;2695;49.444;11.054;2022-10-26T02:24:10;7.63;;;2.80;;
5345;SDS011;2695;49.444;11.054;2022-10-26T02:26:41;5.87;;;3.33;;
5345;SDS011;2695;49.444;11.054;2022-10-26T02:29:34;7.23;;;3.37;;
5345;SDS011;2695;49.444;11.054;2022-10-26T02:32:06;5.83;;;3.40;;
5345;SDS011;2695;49.444;11.054;2022-10-26T02:34:44;19.60;;;4.63;;
5345;SDS011;2695;49.444;11.054;2022-10-26T02:37:20;7.23;;;3.50;;
5345;SDS011;2695;49.444;11.054;2022-10-26T02:40:07;7.43;;;3.67;;
5345;SDS011;2695;49.444;11.054;2022-10-26T02:42:42;4.90;;;3.40;;
5345;SDS011;2695;49.444;11.054;2022-10-26T02:45:15;4.97;;;2.40;;
5345;SDS011;2695;49.444;11.054;2022-10-26T02:47:50;5.13;;;3.70;;
5345;SDS011;2695;49.444;11.054;2022-10-26T02:50:39;5.50;;;3.67;;
5345;SDS011;2695;49.444;11.054;2022-10-26T02:53:32;21.00;;;4.03;;
5345;SDS011;2695;49.444;11.054;2022-10-26T02:56:33;4.90;;;3.10;;
5345;SDS011;2695;49.444;11.054;2022-10-26T02:59:46;6.77;;;3.37;;
5345;SDS011;2695;49.444;11.054;2022-10-26T03:02:57;5.73;;;3.90;;
5345;SDS011;2695;49.444;11.054;2022-10-26T03:06:00;9.20;;;3.27;;
5345;SDS011;2695;49.444;11.054;2022-10-26T03:08:39;8.07;;;2.80;;
5345;SDS011;2695;49.444;11.054;2022-10-26T03:11:17;7.23;;;3.90;;
5345;SDS011;2695;49.444;11.054;2022-10-26T03:13:57;5.17;;;2.70;;
5345;SDS011;2695;49.444;11.054;2022-10-26T03:16:30;7.77;;;3.20;;
5345;SDS011;2695;49.444;11.054;2022-10-26T03:19:04;6.60;;;3.30;;
5345;SDS011;2695;49.444;11.054;2022-10-26T03:21:52;6.60;;;3.27;;
5345;SDS011;2695;49.444;11.054;2022-10-26T03:24:26;5.50;;;2.60;;
5345;SDS011;2695;49.444;11.054;2022-10-26T03:26:56;8.30;;;3.50;;
5345;SDS011;2695;49.444;11.054;2022-10-26T03:29:30;6.07;;;3.10;;
5345;SDS011;2695;49.444;11.054;2022-10-26T03:32:06;10.23;;;3.33;;
5345;SDS011;2695;49.444;11.054;2022-10-26T03:34:37;4.20;;;2.70;;
5345;SDS011;2695;49.444;11.054;2022-10-26T03:37:11;4.37;;;2.80;;
5345;SDS011;2695;49.444;11.054;2022-10-26T03:39:46;7.33;;;3.17;;
5345;SDS011;2695;49.444;11.054;2022-10-26T03:42:20;6.73;;;3.27;;
5345;SDS011;2695;49.444;11.054;2022-10-26T03:44:51;8.40;;;3.33;;
5345;SDS011;2695;49.444;11.054;2022-10-26T03:47:22;6.23;;;3.40;;
5345;SDS011;2695;49.444;11.054;2022-10-26T03:50:01;5.87;;;3.27;;
5345;SDS011;2695;49.444;11.054;2022-10-26T03:52:42;3.90;;;2.70;;
5345;SDS011;2695;49.444;11.054;2022-10-26T03:55:16;5.93;;;3.63;;
5345;SDS011;2695;49.444;11.054;2022-10-26T03:57:47;5.47;;;2.63;;
5345;SDS011;2695;49.444;11.054;2022-10-26T04:00:20;4.47;;;3.10;;
5345;SDS011;2695;49.444;11.054;2022-10-26T04:02:54;6.50;;;2.43;;
5345;SDS011;2695;49.444;11.054;2022-10-26T04:05:27;3.10;;;2.13;;
5345;SDS011;2695;49.444;11.054;2022-10-26T04:08:02;5.40;;;2.47;;
5345;SDS011;2695;49.444;11.054;2022-10-26T04:10:44;8.30;;;2.90;;
5345;SDS011;2695;49.444;11.054;2022-10-26T04:13:13;3.10;;;2.47;;
5345;SDS011;2695;49.444;11.054;2022-10-26T04:15:46;3.33;;;2.20;;
5345;SDS011;2695;49.444;11.054;2022-10-26T04:18:17;4.87;;;2.90;;
5345;SDS011;2695;49.444;11.054;2022-10-26T04:21:01;6.70;;;3.00;;
5345;SDS011;2695;49.444;11.054;2022-10-26T04:23:42;5.97;;;2.80;;
5345;SDS011;2695;49.444;11.054;2022-10-26T04:26:15;13.43;;;2.80;;
5345;SDS011;2695;49.444;11.054;2022-10-26T04:28:46;6.87;;;3.17;;
5345;SDS011;2695;49.444;11.054;2022-10-26T04:31:42;6.70;;;3.03;;
5345;SDS011;2695;49.444;11.054;2022-10-26T04:34:49;4.03;;;2.43;;
5345;SDS011;2695;49.444;11.054;2022-10-26T04:37:20;4.47;;;3.30;;
5345;SDS011;2695;49.444;11.054;2022-10-26T04:39:52;4.33;;;3.00;;
5345;SDS011;2695;49.444;11.054;2022-10-26T04:42:41;5.87;;;3.10;;
5345;SDS011;2695;49.444;11.054;2022-10-26T04:45:16;5.33;;;3.10;;
5345;SDS011;2695;49.444;11.054;2022-10-26T04:48:00;7.30;;;3.20;;
5345;SDS011;2695;49.444;11.054;2022-10-26T04:50:47;5.87;;;3.97;;
5345;SDS011;2695;49.444;11.054;2022-10-26T04:56:30;8.40;;;3.27;;
5345;SDS011;2695;49.444;11.054;2022-10-26T04:59:03;5.90;;;4.10;;
5345;SDS011;2695;49.444;11.054;2022-10-26T05:01:41;7.13;;;3.70;;
5345;SDS011;2695;49.444;11.054;2022-10-26T05:04:13;5.83;;;3.10;;
5345;SDS011;2695;49.444;11.054;2022-10-26T05:06:46;7.33;;;3.17;;
5345;SDS011;2695;49.444;11.054;2022-10-26T05:09:17;4.00;;;2.83;;
5345;SDS011;2695;49.444;11.054;2022-10-26T05:12:00;4.73;;;3.20;;
5345;SDS011;2695;49.444;11.054;2022-10-26T05:14:30;7.40;;;3.70;;
5345;SDS011;2695;49.444;11.054;2022-10-26T05:17:01;9.87;;;4.23;;
5345;SDS011;2695;49.444;11.054;2022-10-26T05:19:40;7.77;;;4.13;;
5345;SDS011;2695;49.444;11.054;2022-10-26T05:22:23;8.90;;;3.40;;
5345;SDS011;2695;49.444;11.054;2022-10-26T05:24:59;9.17;;;3.80;;
5345;SDS011;2695;49.444;11.054;2022-10-26T05:27:47;9.90;;;3.93;;
5345;SDS011;2695;49.444;11.054;2022-10-26T05:30:21;6.40;;;3.53;;
5345;SDS011;2695;49.444;11.054;2022-10-26T05:32:57;5.93;;;3.10;;
5345;SDS011;2695;49.444;11.054;2022-10-26T05:35:35;4.50;;;3.67;;
5345;SDS011;2695;49.444;11.054;2022-10-26T05:38:07;11.73;;;3.60;;
5345;SDS011;2695;49.444;11.054;2022-10-26T05:40:36;10.80;;;3.60;;
5345;SDS011;2695;49.444;11.054;2022-10-26T05:43:29;7.73;;;3.87;;
5345;SDS011;2695;49.444;11.054;2022-10-26T05:46:09;9.83;;;4.17;;
5345;SDS011;2695;49.444;11.054;2022-10-26T05:48:54;6.50;;;3.57;;
5345;SDS011;2695;49.444;11.054;2022-10-26T05:51:50;7.93;;;3.90;;
5345;SDS011;2695;49.444;11.054;2022-10-26T05:54:49;8.53;;;3.57;;
5345;SDS011;2695;49.444;11.054;2022-10-26T05:57:21;7.47;;;2.40;;
5345;SDS011;2695;49.444;11.054;2022-10-26T06:02:44;6.77;;;3.40;;
5345;SDS011;2695;49.444;11.054;2022-10-26T06:05:32;10.23;;;3.57;;
5345;SDS011;2695;49.444;11.054;2022-10-26T06:08:18;6.47;;;3.13;;
5345;SDS011;2695;49.444;11.054;2022-10-26T06:10:47;3.67;;;3.00;;
5345;SDS011;2695;49.444;11.054;2022-10-26T06:13:16;5.83;;;3.10;;
5345;SDS011;2695;49.444;11.054;2022-10-26T06:15:48;4.60;;;2.50;;
5345;SDS011;2695;49.444;11.054;2022-10-26T06:18:57;5.27;;;3.20;;
5345;SDS011;2695;49.444;11.054;2022-10-26T06:21:45;8.63;;;3.60;;
5345;SDS011;2695;49.444;11.054;2022-10-26T06:24:23;6.13;;;2.17;;
5345;SDS011;2695;49.444;11.054;2022-10-26T06:27:16;5.40;;;2.33;;
5345;SDS011;2695;49.444;11.054;2022-10-26T06:29:54;13.13;;;3.17;;
5345;SDS011;2695;49.444;11.054;2022-10-26T06:32:35;3.20;;;2.03;;
5345;SDS011;2695;49.444;11.054;2022-10-26T06:35:13;3.67;;;2.20;;
5345;SDS011;2695;49.444;11.054;2022-10-26T06:37:51;5.00;;;2.47;;
5345;SDS011;2695;49.444;11.054;2022-10-26T06:43:20;9.97;;;3.70;;
5345;SDS011;2695;49.444;11.054;2022-10-26T06:49:27;3.80;;;2.40;;
5345;SDS011;2695;49.444;11.054;2022-10-26T06:55:13;6.13;;;2.67;;
5345;SDS011;2695;49.444;11.054;2022-10-26T06:57:59;9.63;;;2.93;;
5345;SDS011;2695;49.444;11.054;2022-10-26T07:00:29;4.87;;;2.50;;
5345;SDS011;2695;49.444;11.054;2022-10-26T07:02:58;12.73;;;2.30;;
5345;SDS011;2695;49.444;11.054;2022-10-26T07:05:26;8.80;;;2.70;;
5345;SDS011;2695;49.444;11.054;2022-10-26T07:07:55;3.50;;;2.23;;
5345;SDS011;2695;49.444;11.054;2022-10-26T07:10:28;6.87;;;2.93;;
5345;SDS011;2695;49.444;11.054;2022-10-26T07:12:57;7.70;;;2.90;;
5345;SDS011;2695;49.444;11.054;2022-10-26T07:15:26;4.23;;;2.47;;
5345;SDS011;2695;49.444;11.054;2022-10-26T07:17:54;3.20;;;2.50;;
5345;SDS011;2695;49.444;11.054;2022-10-26T07:20:22;4.70;;;2.80;;
5345;SDS011;2695;49.444;11.054;2022-10-26T07:22:51;4.43;;;2.57;;
5345;SDS011;2695;49.444;11.054;2022-10-26T07:25:20;3.20;;;2.07;;
5345;SDS011;2695;49.444;11.054;2022-10-26T07:27:51;7.60;;;2.50;;
5345;SDS011;2695;49.444;11.054;2022-10-26T07:30:23;4.93;;;2.30;;
5345;SDS011;2695;49.444;11.054;2022-10-26T07:32:57;10.33;;;2.30;;
5345;SDS011;2695;49.444;11.054;2022-10-26T07:35:28;2.37;;;1.80;;
5345;SDS011;2695;49.444;11.054;2022-10-26T07:37:56;3.00;;;2.03;;
5345;SDS011;2695;49.444;11.054;2022-10-26T07:40:26;5.73;;;1.93;;
5345;SDS011;2695;49.444;11.054;2022-10-26T07:42:56;5.83;;;2.40;;
5345;SDS011;2695;49.444;11.054;2022-10-26T07:45:28;3.53;;;2.07;;
5345;SDS011;2695;49.444;11.054;2022-10-26T07:47:56;4.10;;;2.17;;
5345;SDS011;2695;49.444;11.054;2022-10-26T07:50:25;4.70;;;2.80;;
5345;SDS011;2695;49.444;11.054;2022-10-26T07:52:56;5.17;;;2.90;;
5345;SDS011;2695;49.444;11.054;2022-10-26T07:55:25;4.30;;;2.50;;
5345;SDS011;2695;49.444;11.054;2022-10-26T07:57:53;3.10;;;2.30;;
5345;SDS011;2695;49.444;11.054;2022-10-26T08:00:24;5.67;;;1.90;;
5345;SDS011;2695;49.444;11.054;2022-10-26T08:02:54;4.93;;;2.53;;
5345;SDS011;2695;49.444;11.054;2022-10-26T08:05:22;3.30;;;2.60;;
5345;SDS011;2695;49.444;11.054;2022-10-26T08:07:51;3.73;;;3.30;;
5345;SDS011;2695;49.444;11.054;2022-10-26T08:10:19;6.43;;;3.67;;
5345;SDS011;2695;49.444;11.054;2022-10-26T08:12:47;2.97;;;1.80;;
5345;SDS011;2695;49.444;11.054;2022-10-26T08:15:15;6.40;;;2.87;;
5345;SDS011;2695;49.444;11.054;2022-10-26T08:17:45;3.10;;;2.70;;
5345;SDS011;2695;49.444;11.054;2022-10-26T08:20:14;2.70;;;1.97;;
5345;SDS011;2695;49.444;11.054;2022-10-26T08:22:44;3.27;;;1.93;;
5345;SDS011;2695;49.444;11.054;2022-10-26T08:25:12;8.40;;;3.57;;
5345;SDS011;2695;49.444;11.054;2022-10-26T08:27:45;3.50;;;2.03;;
5345;SDS011;2695;49.444;11.054;2022-10-26T08:30:14;3.13;;;2.17;;
5345;SDS011;2695;49.444;11.054;2022-10-26T08:32:46;5.60;;;2.50;;
5345;SDS011;2695;49.444;11.054;2022-10-26T08:35:32;7.07;;;2.80;;
5345;SDS011;2695;49.444;11.054;2022-10-26T08:38:05;12.43;;;2.40;;
5345;SDS011;2695;49.444;11.054;2022-10-26T08:40:38;2.83;;;2.00;;
5345;SDS011;2695;49.444;11.054;2022-10-26T08:43:12;2.37;;;2.17;;
5345;SDS011;2695;49.444;11.054;2022-10-26T08:45:49;4.43;;;2.37;;
5345;SDS011;2695;49.444;11.054;2022-10-26T08:48:24;5.23;;;3.00;;
5345;SDS011;2695;49.444;11.054;2022-10-26T08:51:15;8.20;;;2.77;;
5345;SDS011;2695;49.444;11.054;2022-10-26T08:53:51;4.70;;;2.27;;
5345;SDS011;2695;49.444;11.054;2022-10-26T08:56:32;4.77;;;2.50;;
5345;SDS011;2695;49.444;11.054;2022-10-26T09:00:14;8.20;;;2.80;;
5345;SDS011;2695;49.444;11.054;2022-10-26T09:04:08;8.13;;;2.80;;
5345;SDS011;2695;49.444;11.054;2022-10-26T09:14:46;6.07;;;2.97;;
5345;SDS011;2695;49.444;11.054;2022-10-26T09:36:26;6.77;;;3.07;;
5345;SDS011;2695;49.444;11.054;2022-10-26T09:39:32;5.47;;;2.30;;
5345;SDS011;2695;49.444;11.054;2022-10-26T09:42:48;5.93;;;2.30;;
5345;SDS011;2695;49.444;11.054;2022-10-26T09:49:26;10.33;;;3.37;;
5345;SDS011;2695;49.444;11.054;2022-10-26T09:52:37;5.80;;;2.53;;
5345;SDS011;2695;49.444;11.054;2022-10-26T09:55:38;5.87;;;2.20;;
5345;SDS011;2695;49.444;11.054;2022-10-26T09:58:28;6.80;;;2.67;;
5345;SDS011;2695;49.444;11.054;2022-10-26T10:01:36;5.30;;;2.30;;
5345;SDS011;2695;49.444;11.054;2022-10-26T10:04:09;9.93;;;2.47;;
5345;SDS011;2695;49.444;11.054;2022-10-26T10:08:00;7.83;;;3.10;;
5345;SDS011;2695;49.444;11.054;2022-10-26T10:11:09;4.73;;;2.60;;
5345;SDS011;2695;49.444;11.054;2022-10-26T10:25:20;5.00;;;2.47;;
5345;SDS011;2695;49.444;11.054;2022-10-26T10:32:17;5.70;;;2.60;;
5345;SDS011;2695;49.444;11.054;2022-10-26T10:39:37;6.30;;;2.80;;
5345;SDS011;2695;49.444;11.054;2022-10-26T10:45:50;5.67;;;3.17;;
5345;SDS011;2695;49.444;11.054;2022-10-26T10:55:06;4.20;;;2.20;;
5345;SDS011;2695;49.444;11.054;2022-10-26T10:59:18;10.73;;;2.80;;
5345;SDS011;2695;49.444;11.054;2022-10-26T11:01:47;14.63;;;2.67;;
5345;SDS011;2695;49.444;11.054;2022-10-26T11:08:01;4.43;;;2.57;;
5345;SDS011;2695;49.444;11.054;2022-10-26T11:10:35;5.00;;;2.30;;
5345;SDS011;2695;49.444;11.054;2022-10-26T11:13:15;6.87;;;2.30;;
5345;SDS011;2695;49.444;11.054;2022-10-26T11:16:35;5.97;;;2.57;;
5345;SDS011;2695;49.444;11.054;2022-10-26T11:22:21;5.53;;;2.50;;
5345;SDS011;2695;49.444;11.054;2022-10-26T11:24:59;8.40;;;2.50;;
5345;SDS011;2695;49.444;11.054;2022-10-26T11:27:44;6.70;;;3.00;;
5345;SDS011;2695;49.444;11.054;2022-10-26T11:30:17;6.20;;;2.50;;
5345;SDS011;2695;49.444;11.054;2022-10-26T11:32:48;10.47;;;2.70;;
5345;SDS011;2695;49.444;11.054;2022-10-26T11:35:20;9.10;;;3.00;;
5345;SDS011;2695;49.444;11.054;2022-10-26T11:40:37;4.00;;;2.50;;
5345;SDS011;2695;49.444;11.054;2022-10-26T11:43:34;8.03;;;2.67;;
5345;SDS011;2695;49.444;11.054;2022-10-26T11:46:08;7.83;;;2.50;;
5345;SDS011;2695;49.444;11.054;2022-10-26T11:48:57;3.70;;;2.03;;
5345;SDS011;2695;49.444;11.054;2022-10-26T11:51:32;10.50;;;2.67;;
5345;SDS011;2695;49.444;11.054;2022-10-26T11:54:07;6.37;;;2.47;;
5345;SDS011;2695;49.444;11.054;2022-10-26T11:56:41;3.70;;;2.40;;
5345;SDS011;2695;49.444;11.054;2022-10-26T11:59:15;4.30;;;2.30;;
5345;SDS011;2695;49.444;11.054;2022-10-26T12:08:34;8.53;;;2.30;;
5345;SDS011;2695;49.444;11.054;2022-10-26T12:22:28;8.60;;;2.63;;
5345;SDS011;2695;49.444;11.054;2022-10-26T12:29:30;6.23;;;2.50;;
5345;SDS011;2695;49.444;11.054;2022-10-26T12:32:07;5.93;;;2.50;;
5345;SDS011;2695;49.444;11.054;2022-10-26T12:35:38;4.17;;;2.10;;
5345;SDS011;2695;49.444;11.054;2022-10-26T12:38:25;5.90;;;2.63;;
5345;SDS011;2695;49.444;11.054;2022-10-26T12:41:31;8.10;;;3.73;;
5345;SDS011;2695;49.444;11.054;2022-10-26T12:47:59;6.87;;;2.30;;
5345;SDS011;2695;49.444;11.054;2022-10-26T12:50:42;11.90;;;4.33;;
5345;SDS011;2695;49.444;11.054;2022-10-26T12:53:10;6.17;;;2.47;;
5345;SDS011;2695;49.444;11.054;2022-10-26T12:55:47;7.60;;;2.37;;
5345;SDS011;2695;49.444;11.054;2022-10-26T12:58:37;5.13;;;2.87;;
5345;SDS011;2695;49.444;11.054;2022-10-26T13:01:33;10.53;;;2.70;;
5345;SDS011;2695;49.444;11.054;2022-10-26T13:07:34;6.03;;;3.33;;
5345;SDS011;2695;49.444;11.054;2022-10-26T13:10:04;10.13;;;3.30;;
5345;SDS011;2695;49.444;11.054;2022-10-26T13:12:47;4.13;;;2.40;;
5345;SDS011;2695;49.444;11.054;2022-10-26T13:15:19;5.13;;;2.80;;
5345;SDS011;2695;49.444;11.054;2022-10-26T13:17:54;5.87;;;3.07;;
5345;SDS011;2695;49.444;11.054;2022-10-26T13:20:28;10.27;;;3.20;;
5345;SDS011;2695;49.444;11.054;2022-10-26T13:22:59;11.03;;;2.93;;
5345;SDS011;2695;49.444;11.054;2022-10-26T13:25:29;6.80;;;2.30;;
5345;SDS011;2695;49.444;11.054;2022-10-26T13:28:03;7.90;;;3.13;;
5345;SDS011;2695;49.444;11.054;2022-10-26T13:30:43;7.90;;;2.33;;
5345;SDS011;2695;49.444;11.054;2022-10-26T13:33:15;6.07;;;2.60;;
5345;SDS011;2695;49.444;11.054;2022-10-26T13:35:48;3.67;;;2.17;;
5345;SDS011;2695;49.444;11.054;2022-10-26T13:38:21;4.40;;;2.53;;
5345;SDS011;2695;49.444;11.054;2022-10-26T13:40:52;5.37;;;2.50;;
5345;SDS011;2695;49.444;11.054;2022-10-26T13:43:32;2.90;;;2.33;;
5345;SDS011;2695;49.444;11.054;2022-10-26T13:46:05;8.33;;;4.00;;
5345;SDS011;2695;49.444;11.054;2022-10-26T13:48:46;11.60;;;3.13;;
5345;SDS011;2695;49.444;11.054;2022-10-26T13:51:17;3.50;;;2.20;;
5345;SDS011;2695;49.444;11.054;2022-10-26T13:53:51;9.43;;;3.17;;
5345;SDS011;2695;49.444;11.054;2022-10-26T13:56:24;8.67;;;3.00;;
5345;SDS011;2695;49.444;11.054;2022-10-26T13:58:59;6.60;;;2.70;;
5345;SDS011;2695;49.444;11.054;2022-10-26T14:01:30;7.37;;;2.97;;
5345;SDS011;2695;49.444;11.054;2022-10-26T14:03:58;5.77;;;2.50;;
5345;SDS011;2695;49.444;11.054;2022-10-26T14:06:48;4.67;;;2.67;;
5345;SDS011;2695;49.444;11.054;2022-10-26T14:09:19;3.10;;;2.57;;
5345;SDS011;2695;49.444;11.054;2022-10-26T14:11:49;6.73;;;2.30;;
5345;SDS011;2695;49.444;11.054;2022-10-26T14:14:20;6.10;;;3.00;;
5345;SDS011;2695;49.444;11.054;2022-10-26T14:16:50;4.40;;;2.87;;
5345;SDS011;2695;49.444;11.054;2022-10-26T14:19:21;5.27;;;1.93;;
5345;SDS011;2695;49.444;11.054;2022-10-26T14:21:54;6.73;;;3.33;;
5345;SDS011;2695;49.444;11.054;2022-10-26T14:24:26;4.17;;;3.10;;
5345;SDS011;2695;49.444;11.054;2022-10-26T14:27:13;8.70;;;2.60;;
5345;SDS011;2695;49.444;11.054;2022-10-26T14:29:42;4.33;;;3.10;;
5345;SDS011;2695;49.444;11.054;2022-10-26T14:32:19;7.23;;;2.63;;
5345;SDS011;2695;49.444;11.054;2022-10-26T14:34:53;8.03;;;3.27;;
5345;SDS011;2695;49.444;11.054;2022-10-26T14:37:31;7.80;;;2.90;;
5345;SDS011;2695;49.444;11.054;2022-10-26T14:40:09;6.60;;;2.90;;
5345;SDS011;2695;49.444;11.054;2022-10-26T14:42:43;4.90;;;2.80;;
5345;SDS011;2695;49.444;11.054;2022-10-26T14:45:23;4.87;;;3.00;;
5345;SDS011;2695;49.444;11.054;2022-10-26T14:48:18;8.13;;;2.83;;
5345;SDS011;2695;49.444;11.054;2022-10-26T14:51:02;5.53;;;2.80;;
5345;SDS011;2695;49.444;11.054;2022-10-26T14:57:31;6.20;;;3.30;;
5345;SDS011;2695;49.444;11.054;2022-10-26T15:00:03;5.93;;;3.57;;
5345;SDS011;2695;49.444;11.054;2022-10-26T15:02:38;11.90;;;3.67;;
5345;SDS011;2695;49.444;11.054;2022-10-26T15:05:17;8.27;;;2.97;;
5345;SDS011;2695;49.444;11.054;2022-10-26T15:07:47;6.60;;;3.07;;
5345;SDS011;2695;49.444;11.054;2022-10-26T15:13:19;10.83;;;3.20;;
5345;SDS011;2695;49.444;11.054;2022-10-26T15:15:51;4.10;;;2.50;;
5345;SDS011;2695;49.444;11.054;2022-10-26T15:18:24;3.83;;;2.83;;
5345;SDS011;2695;49.444;11.054;2022-10-26T15:20:54;6.57;;;2.80;;
5345;SDS011;2695;49.444;11.054;2022-10-26T15:23:23;6.40;;;3.37;;
5345;SDS011;2695;49.444;11.054;2022-10-26T15:25:54;12.67;;;3.20;;
5345;SDS011;2695;49.444;11.054;2022-10-26T15:28:28;6.63;;;3.43;;
5345;SDS011;2695;49.444;11.054;2022-10-26T15:30:58;6.45;;;3.80;;
5345;SDS011;2695;49.444;11.054;2022-10-26T15:33:33;8.20;;;3.57;;
5345;SDS011;2695;49.444;11.054;2022-10-26T15:36:11;4.07;;;3.10;;
5345;SDS011;2695;49.444;11.054;2022-10-26T15:38:41;6.57;;;3.33;;
5345;SDS011;2695;49.444;11.054;2022-10-26T15:41:12;5.20;;;3.70;;
5345;SDS011;2695;49.444;11.054;2022-10-26T15:43:43;8.63;;;2.90;;
5345;SDS011;2695;49.444;11.054;2022-10-26T15:46:13;10.50;;;3.63;;
5345;SDS011;2695;49.444;11.054;2022-10-26T15:48:42;12.13;;;3.53;;
5345;SDS011;2695;49.444;11.054;2022-10-26T15:51:15;9.70;;;3.67;;
5345;SDS011;2695;49.444;11.054;2022-10-26T15:53:43;12.77;;;4.70;;
5345;SDS011;2695;49.444;11.054;2022-10-26T15:56:12;8.80;;;4.93;;
5345;SDS011;2695;49.444;11.054;2022-10-26T15:58:44;13.73;;;5.20;;
5345;SDS011;2695;49.444;11.054;2022-10-26T16:01:14;11.13;;;4.03;;
5345;SDS011;2695;49.444;11.054;2022-10-26T16:03:53;8.40;;;4.87;;
5345;SDS011;2695;49.444;11.054;2022-10-26T16:06:39;7.97;;;4.27;;
5345;SDS011;2695;49.444;11.054;2022-10-26T16:09:09;13.50;;;4.67;;
5345;SDS011;2695;49.444;11.054;2022-10-26T16:11:42;8.10;;;4.03;;
5345;SDS011;2695;49.444;11.054;2022-10-26T16:14:12;9.23;;;5.07;;
5345;SDS011;2695;49.444;11.054;2022-10-26T16:16:40;15.43;;;4.90;;
5345;SDS011;2695;49.444;11.054;2022-10-26T16:19:09;10.60;;;5.57;;
5345;SDS011;2695;49.444;11.054;2022-10-26T16:21:56;8.93;;;5.13;;
5345;SDS011;2695;49.444;11.054;2022-10-26T16:24:24;10.63;;;5.00;;
5345;SDS011;2695;49.444;11.054;2022-10-26T16:26:54;11.93;;;5.33;;
5345;SDS011;2695;49.444;11.054;2022-10-26T16:29:24;14.70;;;4.70;;
5345;SDS011;2695;49.444;11.054;2022-10-26T16:31:52;11.50;;;4.47;;
5345;SDS011;2695;49.444;11.054;2022-10-26T16:34:20;13.33;;;5.30;;
5345;SDS011;2695;49.444;11.054;2022-10-26T16:36:48;4.23;;;2.93;;
5345;SDS011;2695;49.444;11.054;2022-10-26T16:39:16;7.27;;;3.83;;
5345;SDS011;2695;49.444;11.054;2022-10-26T16:41:44;12.53;;;4.60;;
5345;SDS011;2695;49.444;11.054;2022-10-26T16:44:15;7.23;;;4.00;;
5345;SDS011;2695;49.444;11.054;2022-10-26T16:46:45;6.73;;;4.10;;
5345;SDS011;2695;49.444;11.054;2022-10-26T16:49:13;6.30;;;4.20;;
5345;SDS011;2695;49.444;11.054;2022-10-26T16:51:41;8.20;;;3.50;;
5345;SDS011;2695;49.444;11.054;2022-10-26T16:54:09;6.70;;;3.27;;
5345;SDS011;2695;49.444;11.054;2022-10-26T16:56:37;9.30;;;4.10;;
5345;SDS011;2695;49.444;11.054;2022-10-26T16:59:05;9.40;;;3.70;;
5345;SDS011;2695;49.444;11.054;2022-10-26T17:01:33;12.77;;;4.10;;
5345;SDS011;2695;49.444;11.054;2022-10-26T17:04:03;13.10;;;4.50;;
5345;SDS011;2695;49.444;11.054;2022-10-26T17:06:31;19.80;;;5.00;;
5345;SDS011;2695;49.444;11.054;2022-10-26T17:09:00;12.00;;;5.23;;
5345;SDS011;2695;49.444;11.054;2022-10-26T17:11:28;11.90;;;5.93;;
5345;SDS011;2695;49.444;11.054;2022-10-26T17:13:56;7.73;;;4.53;;
5345;SDS011;2695;49.444;11.054;2022-10-26T17:16:25;14.80;;;5.13;;
5345;SDS011;2695;49.444;11.054;2022-10-26T17:18:53;7.97;;;4.77;;
5345;SDS011;2695;49.444;11.054;2022-10-26T17:21:28;11.27;;;5.60;;
5345;SDS011;2695;49.444;11.054;2022-10-26T17:23:57;15.03;;;6.27;;
5345;SDS011;2695;49.444;11.054;2022-10-26T17:26:25;13.47;;;7.53;;
5345;SDS011;2695;49.444;11.054;2022-10-26T17:28:55;19.67;;;6.37;;
5345;SDS011;2695;49.444;11.054;2022-10-26T17:31:24;17.50;;;6.50;;
5345;SDS011;2695;49.444;11.054;2022-10-26T17:33:52;15.27;;;6.57;;
5345;SDS011;2695;49.444;11.054;2022-10-26T17:36:26;13.87;;;6.07;;
5345;SDS011;2695;49.444;11.054;2022-10-26T17:38:54;12.37;;;6.40;;
5345;SDS011;2695;49.444;11.054;2022-10-26T17:41:23;12.77;;;6.43;;
5345;SDS011;2695;49.444;11.054;2022-10-26T17:43:52;14.30;;;6.33;;
5345;SDS011;2695;49.444;11.054;2022-10-26T17:46:20;8.47;;;5.17;;
5345;SDS011;2695;49.444;11.054;2022-10-26T17:48:54;13.07;;;5.87;;
5345;SDS011;2695;49.444;11.054;2022-10-26T17:51:22;11.83;;;6.10;;
5345;SDS011;2695;49.444;11.054;2022-10-26T17:53:53;11.83;;;5.23;;
5345;SDS011;2695;49.444;11.054;2022-10-26T17:56:21;6.27;;;4.43;;
5345;SDS011;2695;49.444;11.054;2022-10-26T17:58:51;10.43;;;5.50;;
5345;SDS011;2695;49.444;11.054;2022-10-26T18:01:20;11.53;;;5.80;;
5345;SDS011;2695;49.444;11.054;2022-10-26T18:03:48;7.60;;;4.90;;
5345;SDS011;2695;49.444;11.054;2022-10-26T18:06:16;12.20;;;5.63;;
5345;SDS011;2695;49.444;11.054;2022-10-26T18:12:35;8.63;;;4.77;;
5345;SDS011;2695;49.444;11.054;2022-10-26T18:15:04;12.10;;;6.07;;